Terminal Aerodrome Forecast
Issued by NWS Duluth, MN

Home | Current Version | Previous Version | Text Only | Print | Product List | Glossary On
Versions: 1 2 3 4 5 6 7 8 9 10 11 12 13 14 15 16 17 18 19 20 21 22 23 24 25 26 27 28 29 30 31 32 33
418
FTUS43 KDLH 031722
TAFDLH
TAF
KDLH 031722Z 0318/0418 27005KT P6SM OVC015
      TEMPO 0318/0321 -SN OVC010
     FM032100 20005KT P6SM OVC020
     FM040500 17004KT P6SM OVC015
     FM040700 16004KT P6SM VCSH OVC015
     FM040900 15005KT 3SM -SN OVC008=

USA.gov is the U.S. government's official web portal to all federal, state and local government web resources and services.